Time;durP1;ratioP1;P1;durP2;ratioP2;P2;SDS_P1;SDS_P2;PMS_P1;PMS_P2;Temp;Humidity;BMP_temperature;BMP_pressure;BME280_temperature;BME280_humidity;BME280_pressure;Samples;Min_cycle;Max_cycle;Signal;HPM_P1;HPM_P2
2021/08/25 00:01:15;;;;;;;8.57;4.55;;;;;;;11.00;68.64;100255.22;4960122;28;20042;-76
2021/08/25 00:03:44;;;;;;;10.23;4.22;;;;;;;10.96;68.64;100247.38;4951707;28;20454;-77
2021/08/25 00:06:10;;;;;;;6.30;4.10;;;;;;;11.07;68.94;100271.66;4975997;28;20042;-78
2021/08/25 00:08:36;;;;;;;11.77;4.10;;;;;;;10.94;68.95;100255.22;4975786;28;20128;-78
2021/08/25 00:11:03;;;;;;;11.68;4.05;;;;;;;10.89;69.09;100241.34;4975679;28;20526;-76
2021/08/25 00:13:29;;;;;;;8.95;3.70;;;;;;;10.99;69.27;100252.59;4990910;28;20077;-78
2021/08/25 00:15:55;;;;;;;6.13;3.75;;;;;;;11.00;69.52;100243.91;4958500;28;20034;-76
2021/08/25 00:18:21;;;;;;;7.68;3.78;;;;;;;10.98;69.12;100241.31;4975033;28;20097;-79
2021/08/25 00:20:47;;;;;;;8.77;3.60;;;;;;;11.13;69.14;100274.25;4992017;28;20073;-75
2021/08/25 00:23:13;;;;;;;9.48;3.75;;;;;;;11.05;69.53;100255.19;4975001;28;20041;-77
2021/08/25 00:25:38;;;;;;;7.47;3.65;;;;;;;11.15;69.26;100275.09;4992907;28;20042;-76
2021/08/25 00:28:04;;;;;;;7.15;4.18;;;;;;;11.17;69.26;100269.91;4992652;28;20061;-76
2021/08/25 00:30:30;;;;;;;14.25;4.63;;;;;;;11.15;69.76;100269.03;4975096;28;20045;-77
2021/08/25 00:32:56;;;;;;;12.55;4.30;;;;;;;11.19;69.56;100267.28;4992606;28;20037;-76
2021/08/25 00:35:22;;;;;;;13.45;4.53;;;;;;;11.22;69.71;100272.47;4975146;28;20098;-75
2021/08/25 00:37:48;;;;;;;10.15;3.55;;;;;;;11.24;69.73;100274.22;4990740;28;20044;-75
2021/08/25 00:40:14;;;;;;;8.52;4.10;;;;;;;11.26;69.78;100262.03;4978924;28;20045;-78
2021/08/25 00:42:40;;;;;;;6.68;3.80;;;;;;;11.21;69.48;100245.56;5012115;28;20065;-75
2021/08/25 00:45:08;;;;;;;9.52;4.03;;;;;;;11.24;69.76;100255.09;5010430;28;20060;-74
2021/08/25 00:47:44;;;;;;;9.07;3.88;;;;;;;11.27;69.71;100262.91;4994398;28;20555;-76
2021/08/25 00:50:11;;;;;;;10.35;3.92;;;;;;;11.15;69.78;100229.97;5011977;28;20133;-77
2021/08/25 00:52:40;;;;;;;9.70;4.68;;;;;;;11.33;69.60;100267.22;4994683;28;20041;-76
2021/08/25 00:55:07;;;;;;;10.82;4.63;;;;;;;11.24;69.74;100261.19;5011071;28;20512;-76
2021/08/25 00:57:36;;;;;;;7.55;4.30;;;;;;;11.10;69.81;100248.22;5012284;28;20042;-75
2021/08/25 01:00:10;;;;;;;10.15;4.68;;;;;;;11.22;69.59;100260.34;4994441;28;20501;-77
2021/08/25 01:02:51;;;;;;;8.93;4.82;;;;;;;11.23;69.94;100258.59;5015080;28;20050;-75
2021/08/25 01:05:17;;;;;;;8.05;4.15;;;;;;;11.11;69.70;100246.47;4998597;28;20141;-77
2021/08/25 01:07:45;;;;;;;12.60;4.53;;;;;;;11.15;69.82;100258.63;4998326;28;20105;-74
2021/08/25 01:10:23;;;;;;;8.95;4.72;;;;;;;11.05;69.94;100252.59;5013703;28;20050;-77
2021/08/25 01:12:49;;;;;;;10.95;4.60;;;;;;;11.12;69.90;100267.31;5034858;28;20101;-77
2021/08/25 01:15:16;;;;;;;11.00;4.72;;;;;;;11.04;70.47;100261.25;5019850;28;20045;-76
2021/08/25 01:17:43;;;;;;;12.00;4.15;;;;;;;11.04;70.54;100260.38;4999620;28;20042;-77
2021/08/25 01:20:12;;;;;;;7.90;4.18;;;;;;;11.08;70.27;100276.00;5017742;28;20048;-75
2021/08/25 01:22:39;;;;;;;10.75;4.72;;;;;;;11.02;70.41;100260.41;4981251;28;20046;-77
2021/08/25 01:25:07;;;;;;;8.60;4.30;;;;;;;10.95;70.13;100256.94;5015479;28;20470;-76
2021/08/25 01:27:50;;;;;;;9.02;4.55;;;;;;;11.07;70.04;100274.28;4981351;28;20034;-76
2021/08/25 01:30:17;;;;;;;9.25;4.60;;;;;;;11.06;70.36;100269.94;5015190;28;20133;-76
2021/08/25 01:32:43;;;;;;;7.65;3.80;;;;;;;10.93;70.51;100256.09;4997857;28;20040;-75
2021/08/25 01:35:09;;;;;;;11.75;4.38;;;;;;;11.06;70.03;100269.06;5015456;28;20142;-76
2021/08/25 01:37:35;;;;;;;10.75;4.15;;;;;;;11.08;70.59;100267.31;4997449;28;20034;-76
2021/08/25 01:40:01;;;;;;;13.40;4.45;;;;;;;10.91;70.31;100228.34;5013715;28;20042;-76
2021/08/25 01:42:27;;;;;;;9.32;4.72;;;;;;;10.99;70.57;100237.84;4981112;28;20095;-76
2021/08/25 01:44:54;;;;;;;9.68;4.75;;;;;;;11.18;70.50;100249.91;5014634;28;20045;-76
2021/08/25 01:47:21;;;;;;;9.30;4.47;;;;;;;11.19;70.66;100249.03;5015335;28;20068;-76
2021/08/25 01:49:47;;;;;;;7.53;4.07;;;;;;;11.22;70.62;100242.09;4997044;28;20481;-77
2021/08/25 01:52:14;;;;;;;11.43;4.40;;;;;;;11.30;70.41;100257.69;4997359;28;20034;-77
2021/08/25 01:54:41;;;;;;;9.00;4.38;;;;;;;11.32;70.39;100261.16;4980734;28;20481;-76
2021/08/25 01:57:09;;;;;;;10.10;4.53;;;;;;;11.34;70.49;100259.41;4981208;28;20540;-76
2021/08/25 01:59:36;;;;;;;9.55;4.65;;;;;;;11.20;70.38;100238.63;4965143;28;20049;-75
2021/08/25 02:02:02;;;;;;;11.45;4.75;;;;;;;11.27;70.30;100247.28;4997508;28;20042;-77
2021/08/25 02:04:28;;;;;;;9.00;4.90;;;;;;;11.28;70.28;100243.81;5015014;28;20073;-77
2021/08/25 02:06:56;;;;;;;15.57;4.40;;;;;;;11.30;70.27;100247.28;4980313;28;20050;-76
2021/08/25 02:09:22;;;;;;;12.07;4.90;;;;;;;11.30;70.42;100255.09;5014289;28;20421;-77
2021/08/25 02:11:49;;;;;;;11.05;4.30;;;;;;;11.38;70.52;100258.50;4996412;28;20042;-76
2021/08/25 02:14:15;;;;;;;11.73;5.05;;;;;;;11.39;70.42;100255.03;4980477;28;20105;-77
2021/08/25 02:16:41;;;;;;;10.93;4.90;;;;;;;11.40;70.30;100255.91;4996957;28;20052;-78
2021/08/25 02:19:07;;;;;;;10.15;4.57;;;;;;;11.38;70.31;100250.69;5014172;28;20501;-76
2021/08/25 02:21:33;;;;;;;9.15;4.68;;;;;;;11.43;70.42;100261.97;5014289;28;20044;-78
2021/08/25 02:23:59;;;;;;;10.23;3.92;;;;;;;11.47;70.25;100264.56;5014124;28;20096;-78
2021/08/25 02:26:25;;;;;;;12.20;5.03;;;;;;;11.48;70.19;100255.88;5011836;28;20045;-78
2021/08/25 02:28:52;;;;;;;11.57;4.78;;;;;;;11.32;70.25;100224.69;4995891;28;20483;-76
2021/08/25 02:31:19;;;;;;;15.32;4.75;;;;;;;11.40;70.09;100233.31;5009211;28;20100;-77
2021/08/25 02:33:46;;;;;;;10.20;4.60;;;;;;;11.57;70.39;100259.28;5016236;28;20041;-76
2021/08/25 02:36:12;;;;;;;12.75;4.85;;;;;;;11.61;70.08;100254.91;5016188;28;20048;-78
2021/08/25 02:38:39;;;;;;;10.70;4.60;;;;;;;11.65;70.24;100256.63;4987598;28;20057;-77
2021/08/25 02:41:08;;;;;;;14.48;5.07;;;;;;;11.71;70.35;100256.59;4980133;28;20073;-77
2021/08/25 02:43:34;;;;;;;12.73;5.20;;;;;;;11.75;70.38;100258.31;5014220;28;20042;-75
2021/08/25 02:46:02;;;;;;;14.32;5.13;;;;;;;11.74;69.90;100251.38;4996649;28;20493;-78
2021/08/25 02:48:27;;;;;;;8.98;4.90;;;;;;;11.69;70.31;100226.22;4996982;28;20452;-76
2021/08/25 02:50:53;;;;;;;14.07;5.00;;;;;;;11.78;69.84;100233.09;5013900;28;20156;-76
2021/08/25 02:53:37;;;;;;;9.15;4.93;;;;;;;11.85;70.11;100246.09;5014273;28;20509;-77
2021/08/25 02:56:08;;;;;;;10.50;5.38;;;;;;;11.69;69.95;100221.84;4996399;28;20139;-77
2021/08/25 02:58:34;;;;;;;8.90;5.22;;;;;;;11.97;69.88;100265.09;5012365;28;20041;-77
2021/08/25 03:00:59;;;;;;;12.32;5.47;;;;;;;11.93;69.80;100256.44;5013325;28;20115;-79
2021/08/25 03:03:25;;;;;;;14.07;5.32;;;;;;;12.06;69.89;100267.69;5016697;28;20056;-77
2021/08/25 03:05:51;;;;;;;11.80;5.38;;;;;;;11.97;69.91;100249.47;4998876;28;20038;-78
2021/08/25 03:08:17;;;;;;;12.30;5.03;;;;;;;12.14;69.76;100270.25;5016788;28;20417;-77
2021/08/25 03:10:42;;;;;;;12.25;5.28;;;;;;;12.02;69.74;100238.19;5002852;28;20088;-77
2021/08/25 03:13:08;;;;;;;12.00;5.15;;;;;;;12.03;69.93;100242.47;5020153;28;20046;-76
2021/08/25 03:15:35;;;;;;;14.85;5.32;;;;;;;12.22;69.61;100268.44;5023124;28;20053;-77
2021/08/25 03:18:01;;;;;;;9.95;5.30;;;;;;;12.11;69.61;100246.78;5031176;28;20091;-77
2021/08/25 03:20:28;;;;;;;12.20;4.93;;;;;;;12.14;69.61;100254.59;5017820;28;20057;-76
2021/08/25 03:22:53;;;;;;;11.05;5.22;;;;;;;12.20;69.70;100263.22;5020356;28;20050;-77
2021/08/25 03:25:19;;;;;;;13.55;6.50;;;;;;;12.19;69.44;100265.84;4997200;28;20037;-76
2021/08/25 03:27:45;;;;;;;13.35;4.90;;;;;;;12.13;69.43;100252.84;5015415;28;20129;-76
2021/08/25 03:30:11;;;;;;;10.00;5.40;;;;;;;12.22;69.42;100267.56;4981837;28;20041;-79
2021/08/25 03:32:37;;;;;;;10.75;5.22;;;;;;;12.22;69.68;100270.19;4998297;28;20080;-75
2021/08/25 03:35:03;;;;;;;12.25;5.25;;;;;;;12.29;69.40;100277.09;5016487;28;20072;-76
2021/08/25 03:37:29;;;;;;;9.30;5.18;;;;;;;12.14;69.78;100244.16;5000788;28;20041;-79
2021/08/25 03:39:54;;;;;;;12.80;5.45;;;;;;;12.38;69.53;100270.91;4985511;28;20080;-78
2021/08/25 03:42:20;;;;;;;12.98;6.40;;;;;;;12.40;69.71;100274.38;4985634;28;20045;-78
2021/08/25 03:44:46;;;;;;;15.98;6.38;;;;;;;12.41;69.53;100265.69;5015689;28;20045;-77
2021/08/25 03:47:11;;;;;;;11.27;6.32;;;;;;;12.37;69.60;100262.22;4997541;28;20041;-76
2021/08/25 03:49:37;;;;;;;12.05;6.45;;;;;;;12.33;69.36;100247.47;5016005;28;20041;-77
2021/08/25 03:52:03;;;;;;;14.52;6.50;;;;;;;12.43;69.35;100251.72;5017524;28;20057;-77
2021/08/25 03:54:29;;;;;;;15.38;6.60;;;;;;;12.65;69.43;100260.22;5018749;28;20058;-76
2021/08/25 03:56:56;;;;;;;15.55;5.60;;;;;;;12.73;69.11;100248.81;5001907;28;20088;-77
2021/08/25 03:59:22;;;;;;;11.10;5.80;;;;;;;12.85;69.37;100234.75;4984043;28;20042;-77
2021/08/25 04:01:49;;;;;;;13.68;5.57;;;;;;;13.11;69.06;100252.75;5002442;28;20049;-77
2021/08/25 04:04:16;;;;;;;15.27;5.63;;;;;;;13.20;68.65;100239.56;4985940;28;20049;-75
2021/08/25 04:06:42;;;;;;;12.32;5.65;;;;;;;13.38;68.72;100258.50;5002431;28;20065;-77
2021/08/25 04:09:08;;;;;;;10.50;5.25;;;;;;;13.58;68.47;100255.66;5001613;28;20498;-78
2021/08/25 04:11:35;;;;;;;11.80;5.28;;;;;;;13.82;67.44;100254.44;5001602;28;20038;-76
2021/08/25 04:14:01;;;;;;;8.98;4.85;;;;;;;13.97;67.19;100253.31;5021697;28;20124;-75
2021/08/25 04:16:28;;;;;;;11.52;5.57;;;;;;;14.14;66.41;100239.97;5022084;28;20064;-78
2021/08/25 04:19:11;;;;;;;11.60;5.32;;;;;;;14.14;65.94;100223.41;5014767;28;20034;-78
2021/08/25 04:21:37;;;;;;;8.48;5.00;;;;;;;14.61;65.17;100253.13;4994114;28;20033;-77
2021/08/25 04:24:03;;;;;;;9.25;5.25;;;;;;;14.91;64.51;100249.97;5016596;28;20038;-77
2021/08/25 04:26:29;;;;;;;15.57;6.05;;;;;;;15.05;63.39;100211.28;5013207;28;20046;-79
2021/08/25 04:28:55;;;;;;;27.35;13.70;;;;;;;15.26;62.75;100229.19;5008503;28;20041;-77
2021/08/25 04:31:21;;;;;;;23.50;11.38;;;;;;;15.57;62.10;100232.00;5029159;28;20022;-78
2021/08/25 04:33:46;;;;;;;19.15;7.80;;;;;;;15.70;60.41;100221.22;5036073;28;20029;-77
2021/08/25 04:36:12;;;;;;;13.88;6.97;;;;;;;15.88;60.07;100241.81;5052408;28;20038;-78
2021/08/25 04:38:38;;;;;;;14.15;6.03;;;;;;;15.68;58.81;100187.16;5025355;28;20073;-78
2021/08/25 04:41:04;;;;;;;14.15;6.72;;;;;;;16.16;58.65;100242.88;4976798;28;20132;-75
2021/08/25 04:43:29;;;;;;;13.40;6.03;;;;;;;16.40;57.42;100234.41;4993539;28;20113;-77
2021/08/25 04:45:55;;;;;;;12.63;5.93;;;;;;;16.68;57.09;100232.78;4992470;28;20068;-77
2021/08/25 04:48:21;;;;;;;14.02;6.10;;;;;;;17.00;56.22;100228.44;4991107;28;20054;-74
2021/08/25 04:50:47;;;;;;;14.27;6.38;;;;;;;17.26;55.05;100221.56;4995880;28;20042;-76
2021/08/25 04:53:13;;;;;;;14.38;6.15;;;;;;;17.32;53.94;100189.81;4979182;28;20096;-78
2021/08/25 04:55:39;;;;;;;11.43;5.70;;;;;;;17.59;53.23;100224.94;4995890;28;20109;-76
2021/08/25 04:58:06;;;;;;;9.52;6.28;;;;;;;17.28;52.03;100169.78;4995879;28;20157;-75
2021/08/25 05:00:35;;;;;;;11.00;5.55;;;;;;;17.64;52.19;100219.50;4997354;28;20085;-76
2021/08/25 05:03:01;;;;;;;10.85;5.80;;;;;;;17.52;51.14;100183.09;5015721;28;20050;-75
2021/08/25 05:05:27;;;;;;;12.48;6.30;;;;;;;17.86;51.20;100216.19;4997738;28;20041;-76
2021/08/25 05:07:53;;;;;;;11.75;6.13;;;;;;;18.14;50.58;100223.22;4995964;28;20054;-77
2021/08/25 05:10:22;;;;;;;13.68;5.50;;;;;;;18.34;50.13;100212.84;5017085;28;20132;-78
2021/08/25 05:12:48;;;;;;;9.77;5.65;;;;;;;18.57;49.58;100194.50;5033327;28;20076;-76
2021/08/25 05:15:18;;;;;;;9.05;5.82;;;;;;;19.03;49.16;100190.22;5018043;28;20052;-76
2021/08/25 05:17:44;;;;;;;10.45;5.38;;;;;;;19.83;48.33;100188.84;5032391;28;20053;-76
2021/08/25 05:20:13;;;;;;;11.27;5.70;;;;;;;21.53;46.94;100200.75;5036191;28;20059;-76
2021/08/25 05:22:43;;;;;;;10.23;5.32;;;;;;;23.66;44.18;100206.56;5020906;28;20528;-76
2021/08/25 05:25:11;;;;;;;9.73;5.05;;;;;;;25.27;41.18;100182.75;5010034;28;20117;-76
2021/08/25 05:27:37;;;;;;;10.00;5.43;;;;;;;26.67;37.82;100152.97;5050351;28;20044;-77
2021/08/25 05:30:04;;;;;;;10.57;5.70;;;;;;;28.03;34.77;100166.22;5034889;28;20515;-76
2021/08/25 05:32:30;;;;;;;14.98;9.13;;;;;;;28.48;33.45;100143.22;5016262;28;20052;-75
2021/08/25 05:34:56;;;;;;;12.00;7.85;;;;;;;28.99;32.06;100156.13;4999883;28;20065;-75
2021/08/25 05:37:21;;;;;;;12.07;6.35;;;;;;;30.14;30.87;100170.84;4999627;28;20552;-75
2021/08/25 05:39:47;;;;;;;7.93;5.72;;;;;;;31.19;29.21;100160.00;4996689;28;20096;-76
2021/08/25 05:42:13;;;;;;;7.35;4.55;;;;;;;31.59;26.46;100152.81;4979988;28;20038;-77
2021/08/25 05:44:39;;;;;;;9.88;5.07;;;;;;;31.67;26.50;100144.88;5013686;28;20041;-74
2021/08/25 05:47:04;;;;;;;10.60;5.18;;;;;;;32.11;25.73;100133.66;5014224;28;20117;-76
2021/08/25 05:49:30;;;;;;;6.75;4.47;;;;;;;32.84;23.76;100143.78;4995555;28;20645;-76
2021/08/25 05:51:56;;;;;;;5.53;3.92;;;;;;;31.97;23.65;100159.16;4974730;28;20461;-78
2021/08/25 05:54:22;;;;;;;4.57;3.42;;;;;;;31.50;23.76;100154.53;5011414;28;20125;-78
2021/08/25 05:56:47;;;;;;;10.55;3.80;;;;;;;32.57;22.21;100121.19;5014263;28;20445;-75
2021/08/25 05:59:13;;;;;;;6.75;3.92;;;;;;;33.94;21.28;100140.94;4964971;28;20042;-76
2021/08/25 06:01:41;;;;;;;10.95;3.95;;;;;;;33.98;20.99;100144.19;4976663;28;20549;-77
2021/08/25 06:04:06;;;;;;;8.40;4.07;;;;;;;34.34;19.55;100137.81;4960736;28;20130;-75
2021/08/25 06:06:34;;;;;;;5.50;4.55;;;;;;;34.99;19.38;100137.28;4999684;28;20042;-79
2021/08/25 06:09:01;;;;;;;7.75;4.60;;;;;;;35.47;18.17;100134.00;5006190;28;20474;-76
2021/08/25 06:11:27;;;;;;;6.28;4.22;;;;;;;35.91;18.20;100140.91;4976318;28;20035;-76
2021/08/25 06:13:53;;;;;;;6.97;4.50;;;;;;;36.69;18.12;100124.97;4994038;28;20141;-78
2021/08/25 06:16:18;;;;;;;7.75;5.28;;;;;;;37.53;16.94;100137.88;4976728;28;20046;-77
2021/08/25 06:18:44;;;;;;;9.13;4.90;;;;;;;38.09;16.31;100123.09;4976797;28;20034;-76
2021/08/25 06:21:16;;;;;;;6.07;4.32;;;;;;;39.09;15.68;100125.44;4976276;28;20038;-75
2021/08/25 06:23:44;;;;;;;7.05;4.88;;;;;;;39.71;15.33;100105.91;4993950;28;20038;-75
2021/08/25 06:26:11;;;;;;;8.05;4.20;;;;;;;40.13;14.45;100122.34;4993718;28;20040;-77
2021/08/25 06:28:36;;;;;;;8.45;4.38;;;;;;;40.16;14.33;100113.78;4994094;28;20053;-76
2021/08/25 06:31:02;;;;;;;6.18;5.20;;;;;;;40.00;14.01;100104.06;5003295;28;20042;-74
2021/08/25 06:33:28;;;;;;;8.75;4.72;;;;;;;39.78;13.65;100093.22;5013562;28;20112;-77
2021/08/25 06:35:54;;;;;;;6.43;4.93;;;;;;;40.33;13.21;100125.19;4996535;28;20108;-76
2021/08/25 06:38:19;;;;;;;5.38;4.13;;;;;;;39.55;13.61;100066.22;4986625;28;20502;-77
2021/08/25 06:40:45;;;;;;;6.70;4.63;;;;;;;40.50;13.17;100114.81;4976754;28;20541;-77
2021/08/25 06:43:18;;;;;;;6.32;4.43;;;;;;;40.39;12.34;100102.59;4977358;28;20418;-75
2021/08/25 06:46:02;;;;;;;6.28;4.93;;;;;;;39.82;13.35;100101.84;4963799;28;20061;-75
2021/08/25 06:49:16;;;;;;;6.20;5.10;;;;;;;40.90;12.63;100095.03;4967481;28;20181;-74
2021/08/25 06:51:46;;;;;;;7.90;4.72;;;;;;;42.15;12.00;100099.03;4983194;28;20066;-77
2021/08/25 06:54:11;;;;;;;7.22;4.95;;;;;;;42.48;12.13;100091.78;5000860;28;21237;-76
2021/08/25 06:56:41;;;;;;;12.02;8.48;;;;;;;42.21;11.66;100076.31;4999699;28;20053;-75
2021/08/25 06:59:13;;;;;;;9.20;5.82;;;;;;;42.26;12.02;100079.22;4966293;28;20068;-76
2021/08/25 07:01:38;;;;;;;9.38;4.82;;;;;;;42.96;10.79;100090.47;4960476;28;20053;-76
2021/08/25 07:04:13;;;;;;;6.57;4.93;;;;;;;42.56;10.73;100095.13;4995588;28;20042;-77
2021/08/25 07:06:39;;;;;;;10.40;5.05;;;;;;;42.43;11.08;100101.47;4976518;28;20041;-75
2021/08/25 07:09:05;;;;;;;8.40;5.72;;;;;;;42.02;11.70;100074.50;4992846;28;20065;-76
2021/08/25 07:12:10;;;;;;;6.70;5.15;;;;;;;42.16;11.17;100095.25;4992823;28;20042;-74
2021/08/25 07:14:41;;;;;;;4.57;3.97;;;;;;;43.76;10.48;100113.66;4975522;28;20049;-76
2021/08/25 07:20:23;;;;;;;5.07;4.00;;;;;;;43.84;10.49;100116.13;4975995;28;20053;-77
2021/08/25 07:23:06;;;;;;;5.80;4.38;;;;;;;43.25;10.56;100069.03;4993511;28;20038;-75
2021/08/25 07:25:44;;;;;;;7.20;4.40;;;;;;;42.28;10.61;99984.22;4975794;28;20038;-76
2021/08/25 07:29:00;;;;;;;6.13;4.22;;;;;;;44.45;9.98;100061.50;4981338;28;20446;-75
2021/08/25 07:31:49;;;;;;;5.22;4.25;;;;;;;45.24;9.16;100087.16;4982442;28;20133;-75
2021/08/25 07:34:18;;;;;;;10.00;4.97;;;;;;;45.13;9.53;100001.81;4994528;28;20094;-76
2021/08/25 07:37:18;;;;;;;6.83;4.80;;;;;;;45.18;8.98;99987.34;4992146;28;20058;-75
2021/08/25 07:40:14;;;;;;;6.75;4.80;;;;;;;46.41;8.92;100070.81;4959535;28;20061;-77
2021/08/25 07:43:20;;;;;;;9.80;4.53;;;;;;;46.05;8.49;100066.50;4979124;28;20045;-78
2021/08/25 07:46:18;;;;;;;7.25;4.78;;;;;;;46.73;9.05;100108.81;4997089;28;20053;-78
2021/08/25 07:49:06;;;;;;;6.13;4.22;;;;;;;47.47;7.84;100107.06;4995340;28;20420;-77
2021/08/25 07:51:34;;;;;;;7.55;5.30;;;;;;;47.82;7.59;100105.13;4978349;28;20052;-76
2021/08/25 07:54:29;;;;;;;8.93;5.55;;;;;;;45.47;8.10;100107.47;4979888;28;20085;-75
2021/08/25 07:57:02;;;;;;;10.98;5.15;;;;;;;43.92;9.44;100058.28;4992185;28;20527;-74
2021/08/25 07:59:29;;;;;;;9.63;4.68;;;;;;;45.24;9.08;100092.63;4989428;28;20068;-77
2021/08/25 08:02:01;;;;;;;8.63;5.05;;;;;;;45.72;8.72;100094.34;4973870;28;20172;-76
2021/08/25 08:04:27;;;;;;;8.93;5.13;;;;;;;44.01;9.49;100033.31;4958281;28;20038;-75
2021/08/25 08:06:56;;;;;;;5.60;4.03;;;;;;;44.70;8.97;100027.59;4991813;28;20053;-77
2021/08/25 08:09:24;;;;;;;5.15;4.15;;;;;;;45.35;8.24;100028.69;4973766;28;20046;-76
2021/08/25 08:11:51;;;;;;;5.28;4.32;;;;;;;46.58;8.01;100098.38;4974142;28;20561;-77
2021/08/25 08:14:26;;;;;;;5.68;4.25;;;;;;;45.54;7.90;100062.34;4991740;28;20129;-76
2021/08/25 08:17:00;;;;;;;7.00;4.10;;;;;;;44.60;8.24;100058.34;4974657;28;20046;-76
2021/08/25 08:19:30;;;;;;;5.80;4.18;;;;;;;44.37;8.08;100090.03;4958802;28;20091;-76
2021/08/25 08:22:00;;;;;;;4.95;4.20;;;;;;;44.02;8.81;100060.50;4974699;28;20042;-78
2021/08/25 08:24:27;;;;;;;4.88;4.28;;;;;;;45.25;8.80;100072.34;4991244;28;20129;-76
2021/08/25 08:26:54;;;;;;;5.32;4.30;;;;;;;45.68;8.32;100073.97;4978933;28;20046;-76
2021/08/25 08:29:23;;;;;;;;;;;;;;;46.34;7.89;100064.63;4994634;28;20121;-75
2021/08/25 08:31:48;;;;;;;5.22;4.00;;;;;;;46.25;7.90;100060.56;4994617;28;20441;-77
2021/08/25 08:34:14;;;;;;;5.20;4.20;;;;;;;46.39;7.67;100052.88;4997622;28;20148;-76
2021/08/25 08:36:42;;;;;;;8.02;5.60;;;;;;;45.51;8.37;100056.47;4981768;28;20061;-80
2021/08/25 08:39:08;;;;;;;6.40;4.40;;;;;;;44.18;8.26;100055.50;5000656;28;20046;-76
2021/08/25 08:41:34;;;;;;;5.65;4.63;;;;;;;43.89;8.80;100050.56;4978136;28;20034;-76
2021/08/25 08:44:03;;;;;;;6.20;4.25;;;;;;;43.37;8.98;100056.28;4994893;28;20038;-74
2021/08/25 08:46:28;;;;;;;6.00;4.40;;;;;;;42.72;9.32;100055.47;4978406;28;20042;-77
2021/08/25 08:48:55;;;;;;;5.43;4.30;;;;;;;43.48;9.12;100041.03;4995874;28;20075;-74
2021/08/25 08:51:23;;;;;;;6.78;5.40;;;;;;;43.50;9.06;100049.84;4978865;28;20045;-75
2021/08/25 08:53:53;;;;;;;5.68;4.30;;;;;;;42.23;9.58;100030.50;4946659;28;20494;-74
2021/08/25 08:56:20;;;;;;;6.88;4.40;;;;;;;41.87;9.83;100050.16;5013816;28;20100;-77
2021/08/25 08:58:48;;;;;;;5.43;4.35;;;;;;;41.90;9.94;100020.50;5012117;28;20070;-76
2021/08/25 09:01:14;;;;;;;5.88;4.85;;;;;;;42.73;9.38;100034.44;4995554;28;20538;-74
2021/08/25 09:03:41;;;;;;;8.07;5.68;;;;;;;42.71;10.33;100047.47;4977229;28;20102;-75
2021/08/25 09:06:09;;;;;;;8.05;5.70;;;;;;;43.72;9.44;100033.88;5011293;28;20048;-76
2021/08/25 09:08:39;;;;;;;11.05;5.68;;;;;;;43.62;9.68;100039.00;5014260;28;20053;-76
2021/08/25 09:11:16;;;;;;;13.02;5.90;;;;;;;42.56;9.61;100034.97;5016202;28;20045;-76
2021/08/25 09:13:51;;;;;;;6.57;5.43;;;;;;;42.99;10.33;100035.34;5008048;28;20052;-76
2021/08/25 09:16:28;;;;;;;5.97;4.72;;;;;;;44.66;9.56;100042.84;4997535;28;20095;-78
2021/08/25 09:19:14;;;;;;;8.45;5.13;;;;;;;45.80;8.88;100029.97;4998771;28;20083;-77
2021/08/25 09:21:43;;;;;;;8.45;5.18;;;;;;;45.64;8.73;100030.69;4997662;28;20488;-75
2021/08/25 09:24:11;;;;;;;6.13;5.30;;;;;;;45.87;8.88;100016.94;4998201;28;20049;-78
2021/08/25 09:27:06;;;;;;;10.45;5.20;;;;;;;46.52;8.60;100038.00;5003150;28;20034;-77
2021/08/25 09:29:32;;;;;;;10.95;6.03;;;;;;;44.72;8.82;100038.31;5014925;28;20065;-74
2021/08/25 09:31:58;;;;;;;7.00;5.22;;;;;;;42.87;9.45;100019.66;4993624;28;20038;-77
2021/08/25 09:34:30;;;;;;;5.60;4.63;;;;;;;41.55;10.77;99996.25;5015806;28;20052;-77
2021/08/25 09:37:08;;;;;;;5.20;4.30;;;;;;;40.66;11.15;99993.69;5030432;28;20034;-79
2021/08/25 09:40:02;;;;;;;8.68;4.57;;;;;;;39.79;11.91;100005.06;5024508;28;20037;-76
2021/08/25 09:43:12;;;;;;;8.60;4.72;;;;;;;39.65;11.46;99998.69;5017367;28;20042;-76
2021/08/25 09:45:38;;;;;;;8.50;5.20;;;;;;;40.12;12.02;99973.59;4964458;28;20069;-77
2021/08/25 09:48:05;;;;;;;6.78;4.40;;;;;;;40.04;11.54;99888.28;4996114;28;20124;-78
2021/08/25 09:50:31;;;;;;;5.85;4.50;;;;;;;40.53;10.85;100020.88;4997061;28;20044;-78
2021/08/25 09:52:57;;;;;;;6.03;4.07;;;;;;;38.40;12.13;100008.00;4996066;28;20402;-74
2021/08/25 09:55:31;;;;;;;6.10;4.60;;;;;;;37.04;13.32;100013.50;4955682;28;20116;-77
2021/08/25 09:58:00;;;;;;;6.72;4.35;;;;;;;36.19;13.82;100002.47;4994469;28;20456;-76
2021/08/25 10:00:26;;;;;;;5.93;4.22;;;;;;;35.88;14.49;100019.47;4993637;28;20042;-77
2021/08/25 10:02:53;;;;;;;4.80;3.97;;;;;;;35.14;15.08;100018.56;4976759;28;20128;-76
2021/08/25 10:05:29;;;;;;;5.90;4.35;;;;;;;34.46;15.45;100000.69;4961101;28;20465;-78
2021/08/25 10:08:05;;;;;;;6.97;4.32;;;;;;;33.47;16.56;100022.56;4977665;28;20089;-75
2021/08/25 10:10:31;;;;;;;7.28;4.20;;;;;;;33.28;16.60;100019.03;4945536;28;20049;-77
2021/08/25 10:12:56;;;;;;;7.32;4.28;;;;;;;32.68;17.81;100025.88;4994263;28;20138;-76
2021/08/25 10:15:31;;;;;;;7.28;4.55;;;;;;;32.39;17.90;100018.81;4994106;28;20513;-76
2021/08/25 10:18:24;;;;;;;7.38;4.85;;;;;;;32.72;17.92;99994.97;4996261;28;20509;-76
2021/08/25 10:20:55;;;;;;;5.50;3.97;;;;;;;32.69;17.67;100019.50;5011412;28;20080;-78
2021/08/25 10:23:59;;;;;;;7.20;4.35;;;;;;;31.26;18.58;100007.97;4995115;28;20532;-77
2021/08/25 10:26:59;;;;;;;4.78;3.45;;;;;;;30.61;19.33;100001.28;5011608;28;20053;-76
2021/08/25 10:29:29;;;;;;;4.93;4.22;;;;;;;30.41;19.71;100018.28;5011603;28;20468;-74
2021/08/25 10:31:57;;;;;;;7.32;3.88;;;;;;;30.01;19.95;100020.84;4995121;28;20061;-77
2021/08/25 10:34:27;;;;;;;7.20;4.20;;;;;;;29.50;20.59;100016.28;4975766;28;20097;-76
2021/08/25 10:37:13;;;;;;;5.93;4.03;;;;;;;29.04;21.31;100016.47;4975502;28;20053;-75
2021/08/25 10:39:41;;;;;;;7.32;4.03;;;;;;;29.23;21.69;100015.81;4974292;28;20038;-76
2021/08/25 10:42:08;;;;;;;9.05;4.00;;;;;;;29.16;21.46;99986.00;4974959;28;20045;-75
2021/08/25 10:44:40;;;;;;;5.20;3.75;;;;;;;28.77;21.31;100025.84;4975316;28;20049;-78
2021/08/25 10:47:17;;;;;;;7.60;4.00;;;;;;;27.29;22.93;99995.47;4958350;28;20047;-75
2021/08/25 10:49:48;;;;;;;7.68;4.03;;;;;;;26.87;23.41;100020.78;4994940;28;20038;-77
2021/08/25 10:52:14;;;;;;;6.63;4.20;;;;;;;26.62;24.37;100021.69;4995168;28;20049;-74
2021/08/25 10:54:50;;;;;;;5.88;4.30;;;;;;;26.33;24.94;100021.13;4977547;28;20042;-76
2021/08/25 10:57:23;;;;;;;7.85;5.05;;;;;;;26.22;25.38;100005.91;4978610;28;20095;-75
2021/08/25 10:59:49;;;;;;;4.43;3.80;;;;;;;26.56;24.83;100027.50;4962491;28;20042;-73
2021/08/25 11:02:15;;;;;;;5.78;3.38;;;;;;;26.52;24.62;100007.34;4971620;28;20053;-76
2021/08/25 11:04:58;;;;;;;8.95;4.22;;;;;;;26.28;25.39;99992.16;4976243;28;20046;-77
2021/08/25 11:07:29;;;;;;;6.45;3.63;;;;;;;25.92;25.00;99977.78;4982556;28;20045;-76
2021/08/25 11:10:00;;;;;;;5.10;3.50;;;;;;;25.62;26.43;100027.75;4981885;28;20050;-77
2021/08/25 11:12:34;;;;;;;5.80;3.80;;;;;;;25.63;26.30;100029.47;4992944;28;20077;-75
2021/08/25 11:15:04;;;;;;;5.97;3.95;;;;;;;25.59;26.66;100005.81;4993095;28;20042;-77
2021/08/25 11:17:33;;;;;;;7.45;4.05;;;;;;;25.26;26.44;100023.94;4992587;28;20088;-79
2021/08/25 11:20:12;;;;;;;6.03;3.88;;;;;;;25.01;27.51;99980.31;4975252;28;20050;-77
2021/08/25 11:22:57;;;;;;;6.43;3.70;;;;;;;25.23;26.85;99969.09;4975114;28;20049;-74
2021/08/25 11:25:28;;;;;;;6.47;3.92;;;;;;;24.89;26.46;99904.00;4974905;28;20046;-74
2021/08/25 11:27:54;;;;;;;5.40;3.85;;;;;;;24.40;27.34;99892.94;4975850;28;20526;-75
2021/08/25 11:30:36;;;;;;;7.45;3.92;;;;;;;24.94;27.97;100017.13;4980043;28;20155;-76
2021/08/25 11:33:11;;;;;;;8.05;4.40;;;;;;;24.02;27.39;99920.19;4977500;28;20331;-75
2021/08/25 11:35:47;;;;;;;9.68;5.20;;;;;;;24.18;29.15;100023.72;4979801;28;20050;-77
2021/08/25 11:38:18;;;;;;;8.63;4.35;;;;;;;23.04;29.75;99861.50;5013122;28;20054;-76
2021/08/25 11:40:56;;;;;;;9.70;4.20;;;;;;;24.06;30.09;100015.56;5015263;28;20038;-77